Green Bay, Wisconsin
Current Conditions -  °F | °C
As of 4:53 AM on Saturday 25 Oct 2014 (Local Time) from KGRB Reporting Station
Haze Haze  
Wind Chill: 55°   Ceiling: Unl
Heat Index: 55°   Visibility: 4mi
Dew Point: 53°   Wind: 9mph
Humidity: 93%   Direction: 260°W
Pressure: 29.81"   Gusts: NA
Location:  44.51°N, 88.01°W
Report Text: KGRB 250953Z AUTO 26008KT 4SM BR CLR 13/12 A2981 RMK AO2 SLP096 T01280117
Loading
Personal Weather Stations






























Interactive Weather Map New forecast layout! Learn more

10-Day Weather Forecast

Advertisements
Track Severe Weather on mobile